Time;durP1;ratioP1;P1;durP2;ratioP2;P2;SDS_P1;SDS_P2;PMS_P1;PMS_P2;Temp;Humidity;BMP_temperature;BMP_pressure;BME280_temperature;BME280_humidity;BME280_pressure;Samples;Min_cycle;Max_cycle;Signal;HPM_P1;HPM_P2
2023/08/12 15:32:00;;;;;;;4.75;4.00;;;33.70;99.90;;;;;;5679291;22;20699;-74
2023/08/12 15:34:27;;;;;;;5.88;5.28;;;33.70;99.90;;;;;;5055874;28;20213;-73
2023/08/12 15:36:54;;;;;;;5.70;4.97;;;33.60;99.90;;;;;;5051291;28;20523;-72
2023/08/12 15:39:22;;;;;;;5.95;4.80;;;33.70;99.90;;;;;;5039235;28;20206;-72
2023/08/12 15:41:48;;;;;;;8.07;5.38;;;33.60;99.90;;;;;;5052616;28;20730;-72
2023/08/12 15:44:16;;;;;;;6.03;5.40;;;33.30;99.90;;;;;;5053128;28;20241;-79
2023/08/12 15:46:43;;;;;;;4.72;4.05;;;33.30;99.90;;;;;;5051711;28;20263;-77
2023/08/12 15:49:12;;;;;;;6.57;4.78;;;33.40;99.90;;;;;;5052085;28;20264;-78
2023/08/12 15:51:39;;;;;;;6.70;5.15;;;33.60;99.90;;;;;;5046335;28;20272;-79
2023/08/12 15:54:06;;;;;;;7.25;4.97;;;33.70;99.90;;;;;;5044498;28;20214;-80
2023/08/12 15:56:36;;;;;;;8.13;5.15;;;33.70;99.90;;;;;;5051022;28;20206;-78
2023/08/12 15:59:03;;;;;;;4.75;4.25;;;33.50;99.90;;;;;;5064829;28;20203;-80
2023/08/12 16:01:30;;;;;;;7.85;5.10;;;33.30;99.90;;;;;;5051272;28;20779;-77
2023/08/12 16:03:58;;;;;;;5.53;4.88;;;33.30;99.90;;;;;;5050897;28;20198;-79
2023/08/12 16:06:29;;;;;;;7.00;5.00;;;33.40;99.90;;;;;;5052006;28;20264;-79
2023/08/12 16:08:56;;;;;;;8.02;5.18;;;33.50;99.90;;;;;;5048370;28;20206;-78
2023/08/12 16:11:23;;;;;;;6.10;4.32;;;33.40;99.90;;;;;;5040313;28;20206;-79
2023/08/12 16:13:50;;;;;;;7.97;5.05;;;33.40;99.90;;;;;;5050404;28;20637;-79
2023/08/12 16:16:17;;;;;;;7.15;6.00;;;33.40;99.90;;;;;;5051421;28;20291;-79
2023/08/12 16:18:45;;;;;;;6.05;4.63;;;33.40;99.90;;;;;;5051542;28;20209;-80
2023/08/12 16:21:12;;;;;;;7.28;5.43;;;33.40;99.90;;;;;;5052404;28;20229;-78
2023/08/12 16:23:40;;;;;;;5.10;4.55;;;33.40;99.90;;;;;;5052852;28;20689;-78
2023/08/12 16:26:07;;;;;;;7.30;4.90;;;33.40;99.90;;;;;;5039416;28;20697;-79
2023/08/12 16:28:35;;;;;;;6.00;4.88;;;33.40;99.90;;;;;;5045908;28;20210;-80
2023/08/12 16:31:03;;;;;;;8.55;5.20;;;33.40;99.90;;;;;;5048058;28;20221;-78
2023/08/12 16:33:30;;;;;;;7.55;5.88;;;33.40;99.90;;;;;;5052002;28;20576;-78
2023/08/12 16:35:57;;;;;;;7.57;4.25;;;33.30;99.90;;;;;;5051560;28;20791;-81
2023/08/12 16:38:23;;;;;;;4.57;4.18;;;33.30;99.90;;;;;;5051968;28;20354;-81
2023/08/12 16:40:52;;;;;;;7.45;5.68;;;33.40;99.90;;;;;;5051461;28;20202;-78
2023/08/12 16:43:19;;;;;;;4.85;4.45;;;33.30;99.90;;;;;;5052324;28;20677;-76
2023/08/12 16:45:45;;;;;;;5.45;4.93;;;33.10;99.90;;;;;;5051561;28;20291;-81
2023/08/12 16:48:12;;;;;;;6.75;5.50;;;33.10;99.90;;;;;;5051623;28;20673;-80
2023/08/12 16:50:39;;;;;;;5.38;4.95;;;33.10;99.90;;;;;;5052170;28;20205;-80
2023/08/12 16:53:06;;;;;;;9.90;6.13;;;33.10;99.90;;;;;;5051479;28;20218;-80
2023/08/12 16:55:33;;;;;;;6.28;5.68;;;33.10;99.90;;;;;;5052012;28;20214;-82
2023/08/12 16:58:02;;;;;;;8.10;5.13;;;33.00;99.90;;;;;;5051324;28;20289;-79
2023/08/12 17:00:29;;;;;;;6.55;5.53;;;32.90;99.90;;;;;;5037955;28;20285;-81
2023/08/12 17:02:56;;;;;;;6.07;5.03;;;32.80;99.90;;;;;;5051436;28;20291;-76
2023/08/12 17:05:23;;;;;;;6.07;4.88;;;32.60;99.90;;;;;;5051544;28;20238;-78
2023/08/12 17:07:50;;;;;;;7.28;5.47;;;32.50;99.90;;;;;;5049626;28;20202;-81
2023/08/12 17:10:17;;;;;;;6.32;4.78;;;32.40;99.90;;;;;;5050661;28;20241;-77
2023/08/12 17:12:44;;;;;;;19.15;8.98;;;32.30;99.90;;;;;;5051160;28;20253;-80
2023/08/12 17:15:12;;;;;;;7.55;5.45;;;32.30;99.90;;;;;;5051017;28;20268;-79
2023/08/12 17:17:40;;;;;;;5.78;5.25;;;32.30;99.90;;;;;;5051696;28;20206;-82
2023/08/12 17:20:08;;;;;;;6.15;5.03;;;32.30;99.90;;;;;;5050014;28;20218;-76
2023/08/12 17:22:35;;;;;;;5.55;4.75;;;32.20;99.90;;;;;;5050752;28;20244;-77
2023/08/12 17:25:04;;;;;;;6.00;5.07;;;32.10;99.90;;;;;;5050828;28;20242;-78
2023/08/12 17:27:31;;;;;;;4.85;4.28;;;32.10;99.90;;;;;;5050826;28;20260;-76
2023/08/12 17:29:58;;;;;;;6.35;5.15;;;32.00;99.90;;;;;;5050935;28;20241;-79
2023/08/12 17:32:27;;;;;;;6.95;5.03;;;31.90;99.90;;;;;;5050294;28;20680;-80
2023/08/12 17:34:54;;;;;;;4.85;4.40;;;31.80;99.90;;;;;;5050819;28;20207;-76
2023/08/12 17:37:23;;;;;;;8.50;5.18;;;31.70;99.90;;;;;;5051001;28;20210;-80
2023/08/12 17:39:50;;;;;;;6.03;5.28;;;31.60;99.90;;;;;;5045061;28;20669;-79
2023/08/12 17:42:17;;;;;;;7.75;5.65;;;31.50;99.90;;;;;;5043815;28;20237;-80
2023/08/12 17:44:44;;;;;;;5.80;4.88;;;31.60;99.90;;;;;;5050061;28;20206;-79
2023/08/12 17:47:12;;;;;;;8.75;5.68;;;31.50;99.90;;;;;;5050754;28;20210;-79
2023/08/12 17:49:40;;;;;;;9.98;5.18;;;31.50;99.90;;;;;;5050450;28;20217;-80
2023/08/12 17:52:07;;;;;;;6.45;5.85;;;31.50;99.90;;;;;;5050269;28;20299;-80
2023/08/12 17:54:34;;;;;;;9.48;4.95;;;31.50;99.90;;;;;;5049049;28;20318;-78
2023/08/12 17:57:01;;;;;;;8.35;5.60;;;31.50;99.90;;;;;;5049942;28;20559;-79
2023/08/12 17:59:28;;;;;;;6.05;5.30;;;31.50;99.90;;;;;;5048637;28;20217;-76
2023/08/12 18:01:55;;;;;;;7.68;5.05;;;31.50;99.90;;;;;;5049847;28;20257;-75
2023/08/12 18:04:22;;;;;;;5.70;5.20;;;31.50;99.90;;;;;;5050418;28;20242;-75
2023/08/12 18:06:50;;;;;;;6.95;4.60;;;31.40;99.90;;;;;;5049642;28;20673;-76
2023/08/12 18:09:18;;;;;;;5.82;4.70;;;31.40;99.90;;;;;;5050172;28;20225;-75
2023/08/12 18:11:45;;;;;;;5.55;4.95;;;31.30;99.90;;;;;;5050089;28;20218;-76
2023/08/12 18:14:12;;;;;;;6.93;5.53;;;31.20;99.90;;;;;;5050872;28;20202;-75
2023/08/12 18:16:39;;;;;;;9.18;5.20;;;31.10;99.90;;;;;;5050519;28;20680;-75
2023/08/12 18:19:06;;;;;;;8.63;5.57;;;31.00;99.90;;;;;;5035757;28;20234;-76
2023/08/12 18:21:33;;;;;;;9.45;6.72;;;31.00;99.90;;;;;;5050309;28;20247;-75
2023/08/12 18:24:01;;;;;;;7.05;4.60;;;30.90;99.90;;;;;;5048697;28;20233;-74
2023/08/12 18:26:28;;;;;;;7.85;5.20;;;30.80;99.90;;;;;;5045976;28;20214;-74
2023/08/12 18:28:55;;;;;;;6.30;4.95;;;30.80;99.90;;;;;;5049599;28;20584;-75
2023/08/12 18:31:22;;;;;;;6.50;4.45;;;30.70;99.90;;;;;;5050847;28;20241;-74
2023/08/12 18:33:49;;;;;;;7.65;4.78;;;30.70;99.90;;;;;;5049237;28;20245;-75
2023/08/12 18:36:16;;;;;;;5.90;5.07;;;30.70;99.90;;;;;;5049868;28;20241;-75
2023/08/12 18:38:45;;;;;;;6.32;4.95;;;30.60;99.90;;;;;;5050550;28;20735;-74
2023/08/12 18:41:13;;;;;;;6.13;4.50;;;30.60;99.90;;;;;;5050014;28;20676;-74
2023/08/12 18:43:40;;;;;;;5.55;5.05;;;30.50;99.90;;;;;;5050129;28;20261;-75
2023/08/12 18:46:07;;;;;;;5.82;5.28;;;30.50;99.90;;;;;;5048571;28;20242;-76
2023/08/12 18:48:34;;;;;;;5.32;4.63;;;30.40;99.90;;;;;;5050076;28;21216;-75
2023/08/12 18:51:01;;;;;;;8.52;5.25;;;30.40;99.90;;;;;;5050060;28;20241;-74
2023/08/12 18:53:29;;;;;;;6.25;4.15;;;30.30;99.90;;;;;;5049967;28;20255;-74
2023/08/12 18:55:56;;;;;;;5.22;4.82;;;30.30;99.90;;;;;;5049902;28;20296;-75
2023/08/12 18:58:24;;;;;;;5.85;4.63;;;30.30;99.90;;;;;;5049887;28;20746;-75
2023/08/12 19:00:51;;;;;;;8.60;5.63;;;30.20;99.90;;;;;;5049660;28;20230;-74
2023/08/12 19:03:18;;;;;;;7.88;6.07;;;30.10;99.90;;;;;;5049688;28;20675;-74
2023/08/12 19:05:48;;;;;;;9.23;5.57;;;30.10;99.90;;;;;;5050188;28;20238;-75
2023/08/12 19:08:15;;;;;;;7.15;5.80;;;30.10;99.90;;;;;;5049489;28;20213;-75
2023/08/12 19:10:43;;;;;;;7.50;4.90;;;30.00;99.90;;;;;;5032166;28;20203;-74
2023/08/12 19:13:11;;;;;;;8.75;5.68;;;30.00;99.90;;;;;;5045880;28;20214;-75
2023/08/12 19:15:39;;;;;;;5.95;5.28;;;29.90;99.90;;;;;;5053740;28;20203;-74
2023/08/12 19:18:06;;;;;;;7.13;5.00;;;29.80;99.90;;;;;;5053111;28;20232;-76
2023/08/12 19:20:33;;;;;;;8.18;6.47;;;29.80;99.90;;;;;;5053393;28;20242;-75
2023/08/12 19:23:00;;;;;;;8.45;6.10;;;29.80;99.90;;;;;;5053236;28;20351;-75
2023/08/12 19:25:27;;;;;;;6.45;5.50;;;29.70;99.90;;;;;;5053353;28;20259;-75
2023/08/12 19:27:54;;;;;;;7.05;4.97;;;29.60;99.90;;;;;;5045757;28;20215;-75
2023/08/12 19:30:21;;;;;;;6.05;5.20;;;29.60;99.90;;;;;;5046856;28;20207;-75
2023/08/12 19:32:51;;;;;;;6.45;5.60;;;29.50;99.90;;;;;;5053009;28;20238;-75
2023/08/12 19:35:18;;;;;;;5.53;4.50;;;29.50;99.90;;;;;;5053449;28;20674;-75
2023/08/12 19:37:45;;;;;;;7.50;6.00;;;29.40;99.90;;;;;;5052425;28;20607;-75
2023/08/12 19:40:14;;;;;;;6.63;5.72;;;29.40;99.90;;;;;;5053263;28;20216;-75
2023/08/12 19:42:41;;;;;;;6.75;5.47;;;29.30;99.90;;;;;;5053314;28;20316;-75
2023/08/12 19:45:08;;;;;;;8.48;5.45;;;29.30;99.90;;;;;;5052647;28;20249;-75
2023/08/12 19:47:39;;;;;;;7.22;5.53;;;29.20;99.90;;;;;;5048249;28;20210;-75
2023/08/12 19:50:09;;;;;;;7.55;5.85;;;29.20;99.90;;;;;;5044326;28;20243;-75
2023/08/12 19:52:36;;;;;;;5.50;5.03;;;29.20;99.90;;;;;;5053035;28;20292;-75
2023/08/12 19:55:04;;;;;;;7.53;5.05;;;29.10;99.90;;;;;;5052510;28;20226;-74
2023/08/12 19:57:31;;;;;;;10.75;5.90;;;29.10;99.90;;;;;;5052946;28;20202;-75
2023/08/12 19:59:59;;;;;;;8.38;5.13;;;29.00;99.90;;;;;;5047903;28;20645;-76
2023/08/12 20:02:26;;;;;;;5.30;4.80;;;28.90;99.90;;;;;;5052893;28;20262;-75
2023/08/12 20:04:53;;;;;;;5.50;4.97;;;28.90;99.90;;;;;;5052391;28;20234;-75
2023/08/12 20:07:21;;;;;;;7.60;5.05;;;28.90;99.90;;;;;;5033579;28;20212;-75
2023/08/12 20:09:48;;;;;;;5.53;5.00;;;28.80;99.90;;;;;;5048955;28;20234;-75
2023/08/12 20:12:15;;;;;;;5.75;5.15;;;28.80;99.90;;;;;;5052838;28;20210;-74
2023/08/12 20:14:42;;;;;;;6.88;4.85;;;28.80;99.90;;;;;;5051984;28;20231;-75
2023/08/12 20:17:09;;;;;;;5.28;4.88;;;28.70;99.90;;;;;;5051376;28;20225;-75
2023/08/12 20:19:36;;;;;;;6.40;4.03;;;28.70;99.90;;;;;;5051459;28;20235;-75
2023/08/12 20:22:03;;;;;;;5.45;3.95;;;28.70;99.90;;;;;;5049679;28;20674;-76
2023/08/12 20:24:31;;;;;;;6.13;4.22;;;28.70;99.90;;;;;;5051148;28;20257;-75
2023/08/12 20:26:58;;;;;;;5.85;4.22;;;28.70;99.90;;;;;;5050742;28;20241;-74
2023/08/12 20:29:24;;;;;;;5.05;4.32;;;28.60;99.90;;;;;;5052094;28;20686;-76
2023/08/12 20:31:51;;;;;;;6.35;3.65;;;28.60;99.90;;;;;;5051097;28;20238;-75
2023/08/12 20:34:18;;;;;;;4.47;4.07;;;28.60;99.90;;;;;;5050174;28;20214;-75
2023/08/12 20:36:45;;;;;;;5.43;3.72;;;28.50;99.90;;;;;;5038874;28;20243;-74
2023/08/12 20:39:12;;;;;;;6.28;3.70;;;28.50;99.90;;;;;;5032763;28;20203;-73
2023/08/12 20:41:40;;;;;;;5.47;3.78;;;28.50;99.90;;;;;;5044092;28;20202;-75
2023/08/12 20:44:07;;;;;;;6.82;4.07;;;28.40;99.90;;;;;;5050439;28;20269;-73
2023/08/12 20:46:34;;;;;;;6.63;4.28;;;28.40;99.90;;;;;;5050833;28;20218;-74
2023/08/12 20:49:01;;;;;;;3.90;3.10;;;28.30;99.90;;;;;;5051562;28;20297;-71
2023/08/12 20:51:28;;;;;;;4.50;3.15;;;28.30;99.90;;;;;;5051374;28;20242;-71
2023/08/12 20:53:56;;;;;;;6.28;3.38;;;28.20;99.90;;;;;;5051392;28;20569;-74
2023/08/12 20:56:23;;;;;;;6.55;4.22;;;28.20;99.90;;;;;;5051660;28;20209;-74
2023/08/12 20:58:51;;;;;;;5.75;3.53;;;28.20;99.90;;;;;;5051595;28;20287;-80
2023/08/12 21:01:18;;;;;;;4.32;3.13;;;28.10;99.90;;;;;;5051625;28;20211;-75
2023/08/12 21:03:45;;;;;;;5.63;3.78;;;28.10;99.90;;;;;;5051442;28;20698;-79
2023/08/12 21:06:12;;;;;;;5.18;2.83;;;28.10;99.90;;;;;;5051475;28;20301;-78
2023/08/12 21:08:39;;;;;;;3.33;3.00;;;28.10;99.90;;;;;;5051888;28;20203;-72
2023/08/12 21:11:06;;;;;;;3.65;3.08;;;28.00;99.90;;;;;;5051412;28;20238;-76
2023/08/12 21:13:33;;;;;;;5.47;3.38;;;28.00;99.90;;;;;;5051589;28;20207;-77
2023/08/12 21:16:01;;;;;;;3.67;3.33;;;28.00;99.90;;;;;;5051169;28;20256;-80
2023/08/12 21:18:28;;;;;;;5.18;2.63;;;27.90;99.90;;;;;;5051281;28;20238;-74
2023/08/12 21:20:55;;;;;;;4.70;2.78;;;27.80;99.90;;;;;;5051129;28;20292;-76
2023/08/12 21:23:23;;;;;;;2.95;2.58;;;27.70;99.90;;;;;;5051281;28;20277;-74
2023/08/12 21:25:50;;;;;;;3.40;2.38;;;27.70;99.90;;;;;;5050843;28;20732;-74
2023/08/12 21:28:17;;;;;;;8.45;2.55;;;27.70;99.90;;;;;;5051170;28;20203;-75
2023/08/12 21:30:43;;;;;;;3.63;3.22;;;27.70;99.90;;;;;;5051340;28;20203;-74
2023/08/12 21:33:12;;;;;;;2.92;2.30;;;27.70;99.90;;;;;;5050551;28;20246;-73
2023/08/12 21:35:39;;;;;;;3.35;2.55;;;27.60;99.90;;;;;;5050190;28;20238;-74
2023/08/12 21:38:06;;;;;;;5.90;2.88;;;27.50;99.90;;;;;;5050723;28;20246;-74
2023/08/12 21:40:33;;;;;;;4.65;2.50;;;27.50;99.90;;;;;;5050851;28;20663;-75
2023/08/12 21:43:00;;;;;;;2.67;2.15;;;27.50;99.90;;;;;;5050498;28;20270;-75
2023/08/12 21:45:27;;;;;;;2.42;2.05;;;27.50;99.90;;;;;;5050927;28;20239;-75
2023/08/12 21:47:54;;;;;;;3.65;2.60;;;27.40;99.90;;;;;;5050270;28;20214;-75
2023/08/12 21:50:22;;;;;;;3.55;1.85;;;27.40;99.90;;;;;;5050913;28;20253;-75
2023/08/12 21:52:49;;;;;;;4.47;2.50;;;27.40;99.90;;;;;;5050412;28;20719;-75
2023/08/12 21:55:16;;;;;;;3.25;2.30;;;27.30;99.90;;;;;;5050656;28;20336;-76
2023/08/12 21:57:44;;;;;;;5.50;2.35;;;27.30;99.90;;;;;;5051065;28;20203;-76
2023/08/12 22:00:13;;;;;;;2.70;2.15;;;27.20;99.90;;;;;;5050289;28;20700;-75
2023/08/12 22:02:41;;;;;;;3.95;2.15;;;27.20;99.90;;;;;;5051023;28;20306;-75
2023/08/12 22:05:08;;;;;;;5.38;2.30;;;27.10;99.90;;;;;;5049814;28;20213;-75
2023/08/12 22:07:36;;;;;;;2.55;2.08;;;27.10;99.90;;;;;;5046553;28;20211;-76
2023/08/12 22:10:04;;;;;;;2.35;2.15;;;27.00;99.90;;;;;;5032592;28;20239;-75
2023/08/12 22:12:31;;;;;;;3.13;2.35;;;27.00;99.90;;;;;;5044780;28;20300;-76
2023/08/12 22:14:58;;;;;;;5.32;2.40;;;27.00;99.90;;;;;;5050182;28;20249;-76
2023/08/12 22:17:25;;;;;;;3.55;2.30;;;27.00;99.90;;;;;;5050459;28;20689;-76
2023/08/12 22:19:52;;;;;;;3.05;2.33;;;27.00;99.90;;;;;;5049798;28;20202;-76
2023/08/12 22:22:19;;;;;;;2.05;1.88;;;26.90;99.90;;;;;;5050332;28;20674;-77
2023/08/12 22:24:48;;;;;;;2.35;2.13;;;26.80;99.90;;;;;;5050262;28;20234;-76
2023/08/12 22:27:15;;;;;;;2.63;2.35;;;26.80;99.90;;;;;;5050369;28;20264;-74
2023/08/12 22:29:42;;;;;;;5.28;2.50;;;26.80;99.90;;;;;;5050606;28;20233;-74
2023/08/12 22:32:10;;;;;;;2.97;2.35;;;26.80;99.90;;;;;;5050264;28;20215;-74
2023/08/12 22:34:37;;;;;;;3.67;2.10;;;26.80;99.90;;;;;;5050096;28;20242;-74
2023/08/12 22:37:04;;;;;;;2.25;2.05;;;26.80;99.90;;;;;;5049968;28;20276;-73
2023/08/12 22:39:31;;;;;;;3.90;2.40;;;26.80;99.90;;;;;;5050166;28;20206;-74
2023/08/12 22:41:59;;;;;;;3.28;2.88;;;26.70;99.90;;;;;;5049577;28;20198;-75
2023/08/12 22:44:26;;;;;;;3.03;2.30;;;26.60;99.90;;;;;;5064269;28;20269;-75
2023/08/12 22:46:53;;;;;;;2.78;2.58;;;26.60;99.90;;;;;;5039439;28;20199;-75
2023/08/12 22:49:20;;;;;;;2.47;2.28;;;26.60;99.90;;;;;;5054355;28;20263;-75
2023/08/12 22:51:47;;;;;;;3.22;2.92;;;26.60;99.90;;;;;;5053968;28;20653;-74
2023/08/12 22:54:13;;;;;;;2.60;2.30;;;26.60;99.90;;;;;;5054338;28;20260;-75
2023/08/12 22:56:41;;;;;;;4.45;2.38;;;26.60;99.90;;;;;;5054172;28;20264;-74
2023/08/12 22:59:09;;;;;;;3.92;2.55;;;26.60;99.90;;;;;;5053683;28;20249;-75
2023/08/12 23:01:36;;;;;;;2.40;2.20;;;26.50;99.90;;;;;;5052825;28;20246;-78
2023/08/12 23:04:03;;;;;;;5.63;2.30;;;26.40;99.90;;;;;;5040901;28;20583;-78
2023/08/12 23:06:30;;;;;;;2.95;1.90;;;26.40;99.90;;;;;;5053880;28;20245;-75
2023/08/12 23:08:57;;;;;;;4.10;2.30;;;26.40;99.90;;;;;;5053338;28;20249;-75
2023/08/12 23:11:23;;;;;;;4.05;2.70;;;26.40;99.90;;;;;;5053899;28;20242;-74
2023/08/12 23:13:51;;;;;;;2.80;2.58;;;26.30;99.90;;;;;;5053395;28;20257;-75
2023/08/12 23:16:20;;;;;;;2.83;2.63;;;26.30;99.90;;;;;;5053643;28;20207;-75
2023/08/12 23:18:47;;;;;;;2.70;2.50;;;26.20;99.90;;;;;;5053353;28;20207;-74
2023/08/12 23:21:14;;;;;;;2.20;2.10;;;26.10;99.90;;;;;;5053677;28;20215;-76
2023/08/12 23:23:41;;;;;;;4.13;2.38;;;26.00;99.90;;;;;;5053557;28;20234;-77
2023/08/12 23:26:08;;;;;;;3.42;2.70;;;26.00;99.90;;;;;;5053441;28;20265;-78
2023/08/12 23:28:35;;;;;;;2.72;2.53;;;26.00;99.90;;;;;;5053657;28;20210;-78
2023/08/12 23:31:02;;;;;;;3.97;2.60;;;26.00;99.90;;;;;;5066884;28;20243;-75
2023/08/12 23:33:30;;;;;;;3.05;2.17;;;26.10;99.90;;;;;;5053364;28;20272;-74
2023/08/12 23:35:57;;;;;;;2.40;1.95;;;26.10;99.90;;;;;;5052881;28;20238;-74
2023/08/12 23:38:24;;;;;;;3.75;2.17;;;26.10;99.90;;;;;;5053382;28;20238;-74
2023/08/12 23:40:51;;;;;;;3.38;3.08;;;26.10;99.90;;;;;;5052903;28;20249;-77
2023/08/12 23:43:18;;;;;;;3.03;2.17;;;26.10;99.90;;;;;;5052966;28;20261;-76
2023/08/12 23:45:45;;;;;;;2.55;2.33;;;26.10;99.90;;;;;;5053077;28;20629;-76
2023/08/12 23:48:11;;;;;;;3.45;2.28;;;26.10;99.90;;;;;;5053248;28;20207;-77
2023/08/12 23:50:40;;;;;;;4.28;2.55;;;26.10;99.90;;;;;;5053183;28;20311;-76
2023/08/12 23:53:07;;;;;;;4.72;2.40;;;26.20;99.90;;;;;;5052405;28;20242;-76
2023/08/12 23:55:34;;;;;;;2.80;2.47;;;26.20;99.90;;;;;;5053357;28;20721;-77
2023/08/12 23:58:01;;;;;;;3.25;2.20;;;26.10;99.90;;;;;;5051435;28;20253;-81
